sensor_id;sensor_type;location;lat;lon;timestamp;pressure;altitude;pressure_sealevel;temperature
11424;BMP180;5768;51.476;7.210;2022-10-04T00:01:49;101058.00;;;14.60
11424;BMP180;5768;51.476;7.210;2022-10-04T00:06:58;101042.00;;;14.70
11424;BMP180;5768;51.476;7.210;2022-10-04T00:12:03;101042.00;;;14.70
11424;BMP180;5768;51.476;7.210;2022-10-04T00:17:19;101036.00;;;14.80
11424;BMP180;5768;51.476;7.210;2022-10-04T00:22:25;101039.00;;;14.80
11424;BMP180;5768;51.476;7.210;2022-10-04T00:27:28;101031.00;;;14.80
11424;BMP180;5768;51.476;7.210;2022-10-04T00:32:46;101030.00;;;14.80
11424;BMP180;5768;51.476;7.210;2022-10-04T00:38:07;101016.00;;;14.70
11424;BMP180;5768;51.476;7.210;2022-10-04T00:43:16;101013.00;;;14.60
11424;BMP180;5768;51.476;7.210;2022-10-04T00:48:36;101011.00;;;14.60
11424;BMP180;5768;51.476;7.210;2022-10-04T00:53:57;101006.00;;;14.50
11424;BMP180;5768;51.476;7.210;2022-10-04T00:59:34;101003.00;;;14.50
11424;BMP180;5768;51.476;7.210;2022-10-04T01:04:46;101014.00;;;14.50
11424;BMP180;5768;51.476;7.210;2022-10-04T01:09:52;101018.00;;;14.40
11424;BMP180;5768;51.476;7.210;2022-10-04T01:15:04;101007.00;;;14.40
11424;BMP180;5768;51.476;7.210;2022-10-04T01:25:48;100992.00;;;14.40
11424;BMP180;5768;51.476;7.210;2022-10-04T01:30:51;100989.00;;;14.40
11424;BMP180;5768;51.476;7.210;2022-10-04T01:35:53;100986.00;;;14.40
11424;BMP180;5768;51.476;7.210;2022-10-04T01:41:00;100977.00;;;14.40
11424;BMP180;5768;51.476;7.210;2022-10-04T01:46:11;100967.00;;;14.30
11424;BMP180;5768;51.476;7.210;2022-10-04T01:51:21;100959.00;;;14.40
11424;BMP180;5768;51.476;7.210;2022-10-04T01:56:30;100952.00;;;14.40
11424;BMP180;5768;51.476;7.210;2022-10-04T02:01:42;100952.00;;;14.40
11424;BMP180;5768;51.476;7.210;2022-10-04T02:06:51;100953.00;;;14.30
11424;BMP180;5768;51.476;7.210;2022-10-04T02:11:58;100948.00;;;14.30
11424;BMP180;5768;51.476;7.210;2022-10-04T02:17:05;100938.00;;;14.20
11424;BMP180;5768;51.476;7.210;2022-10-04T02:22:10;100934.00;;;14.10
11424;BMP180;5768;51.476;7.210;2022-10-04T02:27:15;100922.00;;;14.20
11424;BMP180;5768;51.476;7.210;2022-10-04T02:32:17;100907.00;;;14.20
11424;BMP180;5768;51.476;7.210;2022-10-04T02:37:38;100911.00;;;14.30
11424;BMP180;5768;51.476;7.210;2022-10-04T02:42:47;100908.00;;;14.20
11424;BMP180;5768;51.476;7.210;2022-10-04T02:47:57;100911.00;;;14.20
11424;BMP180;5768;51.476;7.210;2022-10-04T02:53:14;100907.00;;;14.20
11424;BMP180;5768;51.476;7.210;2022-10-04T02:58:25;100899.00;;;14.20
11424;BMP180;5768;51.476;7.210;2022-10-04T03:03:29;100890.00;;;14.20
11424;BMP180;5768;51.476;7.210;2022-10-04T03:08:36;100894.00;;;14.20
11424;BMP180;5768;51.476;7.210;2022-10-04T03:13:50;100897.00;;;14.20
11424;BMP180;5768;51.476;7.210;2022-10-04T03:18:56;100885.00;;;14.10
11424;BMP180;5768;51.476;7.210;2022-10-04T03:24:00;100887.00;;;14.10
11424;BMP180;5768;51.476;7.210;2022-10-04T03:29:10;100882.00;;;14.30
11424;BMP180;5768;51.476;7.210;2022-10-04T03:34:15;100884.00;;;14.40
11424;BMP180;5768;51.476;7.210;2022-10-04T03:39:28;100892.00;;;14.40
11424;BMP180;5768;51.476;7.210;2022-10-04T03:44:34;100886.00;;;14.20
11424;BMP180;5768;51.476;7.210;2022-10-04T03:49:38;100883.00;;;14.10
11424;BMP180;5768;51.476;7.210;2022-10-04T03:54:42;100877.00;;;14.00
11424;BMP180;5768;51.476;7.210;2022-10-04T03:59:46;100868.00;;;13.90
11424;BMP180;5768;51.476;7.210;2022-10-04T04:05:00;100862.00;;;13.90
11424;BMP180;5768;51.476;7.210;2022-10-04T04:10:17;100866.00;;;13.80
11424;BMP180;5768;51.476;7.210;2022-10-04T04:15:28;100872.00;;;13.80
11424;BMP180;5768;51.476;7.210;2022-10-04T04:20:33;100863.00;;;13.70
11424;BMP180;5768;51.476;7.210;2022-10-04T04:25:38;100852.00;;;13.70
11424;BMP180;5768;51.476;7.210;2022-10-04T04:30:48;100849.00;;;13.70
11424;BMP180;5768;51.476;7.210;2022-10-04T04:36:04;100861.00;;;13.70
11424;BMP180;5768;51.476;7.210;2022-10-04T04:41:09;100859.00;;;13.70
11424;BMP180;5768;51.476;7.210;2022-10-04T04:46:13;100836.00;;;13.80
11424;BMP180;5768;51.476;7.210;2022-10-04T04:51:20;100838.00;;;13.90
11424;BMP180;5768;51.476;7.210;2022-10-04T04:56:27;100826.00;;;13.90
11424;BMP180;5768;51.476;7.210;2022-10-04T05:01:35;100824.00;;;13.90
11424;BMP180;5768;51.476;7.210;2022-10-04T05:06:40;100813.00;;;14.00
11424;BMP180;5768;51.476;7.210;2022-10-04T05:11:43;100817.00;;;14.00
11424;BMP180;5768;51.476;7.210;2022-10-04T05:16:49;100817.00;;;14.00
11424;BMP180;5768;51.476;7.210;2022-10-04T05:21:54;100813.00;;;14.00
11424;BMP180;5768;51.476;7.210;2022-10-04T05:27:00;100819.00;;;14.10
11424;BMP180;5768;51.476;7.210;2022-10-04T05:32:22;100815.00;;;14.00
11424;BMP180;5768;51.476;7.210;2022-10-04T05:37:42;100821.00;;;13.80
11424;BMP180;5768;51.476;7.210;2022-10-04T05:42:50;100825.00;;;13.70
11424;BMP180;5768;51.476;7.210;2022-10-04T05:47:57;100830.00;;;13.60
11424;BMP180;5768;51.476;7.210;2022-10-04T05:53:21;100828.00;;;13.50
11424;BMP180;5768;51.476;7.210;2022-10-04T05:58:50;100824.00;;;13.50
11424;BMP180;5768;51.476;7.210;2022-10-04T06:04:19;100822.00;;;13.60
11424;BMP180;5768;51.476;7.210;2022-10-04T06:10:04;100825.00;;;13.70
11424;BMP180;5768;51.476;7.210;2022-10-04T06:15:40;100822.00;;;13.70
11424;BMP180;5768;51.476;7.210;2022-10-04T06:21:18;100806.00;;;13.80
11424;BMP180;5768;51.476;7.210;2022-10-04T06:26:26;100810.00;;;13.90
11424;BMP180;5768;51.476;7.210;2022-10-04T06:31:53;100819.00;;;14.00
11424;BMP180;5768;51.476;7.210;2022-10-04T06:37:24;100815.00;;;14.10
11424;BMP180;5768;51.476;7.210;2022-10-04T06:42:55;100824.00;;;14.30
11424;BMP180;5768;51.476;7.210;2022-10-04T06:48:26;100818.00;;;14.40
11424;BMP180;5768;51.476;7.210;2022-10-04T06:53:47;100830.00;;;14.60
11424;BMP180;5768;51.476;7.210;2022-10-04T06:59:31;100826.00;;;14.70
11424;BMP180;5768;51.476;7.210;2022-10-04T07:04:45;100830.00;;;14.80
11424;BMP180;5768;51.476;7.210;2022-10-04T07:09:56;100838.00;;;15.00
11424;BMP180;5768;51.476;7.210;2022-10-04T07:15:04;100843.00;;;15.20
11424;BMP180;5768;51.476;7.210;2022-10-04T07:20:20;100838.00;;;15.40
11424;BMP180;5768;51.476;7.210;2022-10-04T07:25:29;100845.00;;;15.60
11424;BMP180;5768;51.476;7.210;2022-10-04T07:30:38;100845.00;;;15.90
11424;BMP180;5768;51.476;7.210;2022-10-04T07:35:47;100851.00;;;16.10
11424;BMP180;5768;51.476;7.210;2022-10-04T07:41:05;100860.00;;;16.30
11424;BMP180;5768;51.476;7.210;2022-10-04T07:46:19;100855.00;;;16.40
11424;BMP180;5768;51.476;7.210;2022-10-04T07:51:31;100857.00;;;16.50
11424;BMP180;5768;51.476;7.210;2022-10-04T07:56:43;100871.00;;;16.70
11424;BMP180;5768;51.476;7.210;2022-10-04T08:01:58;100868.00;;;16.80
11424;BMP180;5768;51.476;7.210;2022-10-04T08:07:11;100859.00;;;16.90
11424;BMP180;5768;51.476;7.210;2022-10-04T08:12:27;100863.00;;;16.90
11424;BMP180;5768;51.476;7.210;2022-10-04T08:17:50;100859.00;;;17.00
11424;BMP180;5768;51.476;7.210;2022-10-04T08:23:26;100852.00;;;17.00
11424;BMP180;5768;51.476;7.210;2022-10-04T08:28:45;100854.00;;;17.00
11424;BMP180;5768;51.476;7.210;2022-10-04T08:34:29;100861.00;;;16.80
11424;BMP180;5768;51.476;7.210;2022-10-04T08:39:54;100857.00;;;17.00
11424;BMP180;5768;51.476;7.210;2022-10-04T08:45:50;100862.00;;;17.20
11424;BMP180;5768;51.476;7.210;2022-10-04T08:51:57;100862.00;;;17.40
11424;BMP180;5768;51.476;7.210;2022-10-04T08:57:26;100851.00;;;17.50
11424;BMP180;5768;51.476;7.210;2022-10-04T09:03:25;100850.00;;;17.70
11424;BMP180;5768;51.476;7.210;2022-10-04T09:09:27;100859.00;;;17.90
11424;BMP180;5768;51.476;7.210;2022-10-04T09:15:12;100850.00;;;18.00
11424;BMP180;5768;51.476;7.210;2022-10-04T09:20:32;100837.00;;;18.10
11424;BMP180;5768;51.476;7.210;2022-10-04T09:26:02;100836.00;;;18.10
11424;BMP180;5768;51.476;7.210;2022-10-04T09:31:45;100823.00;;;18.30
11424;BMP180;5768;51.476;7.210;2022-10-04T09:37:22;100808.00;;;18.40
11424;BMP180;5768;51.476;7.210;2022-10-04T09:43:01;100805.00;;;18.60
11424;BMP180;5768;51.476;7.210;2022-10-04T09:48:32;100803.00;;;18.70
11424;BMP180;5768;51.476;7.210;2022-10-04T09:53:57;100801.00;;;18.60
11424;BMP180;5768;51.476;7.210;2022-10-04T09:59:52;100803.00;;;18.70
11424;BMP180;5768;51.476;7.210;2022-10-04T10:05:22;100805.00;;;18.70
11424;BMP180;5768;51.476;7.210;2022-10-04T10:10:38;100802.00;;;18.80
11424;BMP180;5768;51.476;7.210;2022-10-04T10:16:11;100806.00;;;18.90
11424;BMP180;5768;51.476;7.210;2022-10-04T10:21:33;100804.00;;;18.90
11424;BMP180;5768;51.476;7.210;2022-10-04T10:27:05;100803.00;;;18.90
11424;BMP180;5768;51.476;7.210;2022-10-04T10:32:34;100816.00;;;19.00
11424;BMP180;5768;51.476;7.210;2022-10-04T10:37:58;100809.00;;;18.90
11424;BMP180;5768;51.476;7.210;2022-10-04T10:43:34;100798.00;;;19.00
11424;BMP180;5768;51.476;7.210;2022-10-04T10:49:01;100789.00;;;19.10
11424;BMP180;5768;51.476;7.210;2022-10-04T10:54:52;100788.00;;;19.20
11424;BMP180;5768;51.476;7.210;2022-10-04T11:00:21;100787.00;;;19.20
11424;BMP180;5768;51.476;7.210;2022-10-04T11:06:10;100787.00;;;19.30
11424;BMP180;5768;51.476;7.210;2022-10-04T11:17:20;100783.00;;;19.70
11424;BMP180;5768;51.476;7.210;2022-10-04T11:28:40;100772.00;;;20.10
11424;BMP180;5768;51.476;7.210;2022-10-04T11:34:16;100766.00;;;20.10
11424;BMP180;5768;51.476;7.210;2022-10-04T11:39:51;100745.00;;;20.40
11424;BMP180;5768;51.476;7.210;2022-10-04T11:45:23;100749.00;;;20.70
11424;BMP180;5768;51.476;7.210;2022-10-04T11:50:55;100757.00;;;21.10
11424;BMP180;5768;51.476;7.210;2022-10-04T12:02:24;100740.00;;;21.80
11424;BMP180;5768;51.476;7.210;2022-10-04T12:07:49;100738.00;;;22.40
11424;BMP180;5768;51.476;7.210;2022-10-04T12:13:43;100738.00;;;22.50
11424;BMP180;5768;51.476;7.210;2022-10-04T12:19:47;100739.00;;;23.00
11424;BMP180;5768;51.476;7.210;2022-10-04T12:25:24;100737.00;;;23.30
11424;BMP180;5768;51.476;7.210;2022-10-04T12:30:42;100729.00;;;23.80
11424;BMP180;5768;51.476;7.210;2022-10-04T12:36:09;100723.00;;;24.60
11424;BMP180;5768;51.476;7.210;2022-10-04T12:41:30;100714.00;;;25.20
11424;BMP180;5768;51.476;7.210;2022-10-04T12:46:52;100708.00;;;26.20
11424;BMP180;5768;51.476;7.210;2022-10-04T12:52:10;100701.00;;;27.50
11424;BMP180;5768;51.476;7.210;2022-10-04T12:57:38;100698.00;;;28.20
11424;BMP180;5768;51.476;7.210;2022-10-04T13:03:11;100688.00;;;27.80
11424;BMP180;5768;51.476;7.210;2022-10-04T13:08:31;100691.00;;;28.60
11424;BMP180;5768;51.476;7.210;2022-10-04T13:14:29;100695.00;;;29.00
11424;BMP180;5768;51.476;7.210;2022-10-04T13:19:47;100691.00;;;29.70
11424;BMP180;5768;51.476;7.210;2022-10-04T13:25:09;100687.00;;;30.80
11424;BMP180;5768;51.476;7.210;2022-10-04T13:30:20;100689.00;;;31.80
11424;BMP180;5768;51.476;7.210;2022-10-04T13:35:29;100687.00;;;32.10
11424;BMP180;5768;51.476;7.210;2022-10-04T13:41:00;100677.00;;;33.10
11424;BMP180;5768;51.476;7.210;2022-10-04T13:46:20;100673.00;;;33.30
11424;BMP180;5768;51.476;7.210;2022-10-04T13:51:48;100670.00;;;33.80
11424;BMP180;5768;51.476;7.210;2022-10-04T13:57:24;100664.00;;;34.70
11424;BMP180;5768;51.476;7.210;2022-10-04T14:03:17;100666.00;;;34.60
11424;BMP180;5768;51.476;7.210;2022-10-04T14:08:59;100666.00;;;34.00
11424;BMP180;5768;51.476;7.210;2022-10-04T14:21:00;100665.00;;;35.30
11424;BMP180;5768;51.476;7.210;2022-10-04T14:26:42;100655.00;;;34.70
11424;BMP180;5768;51.476;7.210;2022-10-04T14:32:18;100663.00;;;34.40
11424;BMP180;5768;51.476;7.210;2022-10-04T14:49:56;100648.00;;;36.10
11424;BMP180;5768;51.476;7.210;2022-10-04T14:55:28;100630.00;;;35.90
11424;BMP180;5768;51.476;7.210;2022-10-04T15:06:37;100639.00;;;33.90
11424;BMP180;5768;51.476;7.210;2022-10-04T15:11:49;100641.00;;;32.40
11424;BMP180;5768;51.476;7.210;2022-10-04T15:16:57;100630.00;;;32.40
11424;BMP180;5768;51.476;7.210;2022-10-04T15:22:09;100627.00;;;33.40
11424;BMP180;5768;51.476;7.210;2022-10-04T15:32:26;100631.00;;;32.10
11424;BMP180;5768;51.476;7.210;2022-10-04T15:37:42;100626.00;;;30.50
11424;BMP180;5768;51.476;7.210;2022-10-04T15:43:17;100630.00;;;29.80
11424;BMP180;5768;51.476;7.210;2022-10-04T15:48:37;100635.00;;;28.20
11424;BMP180;5768;51.476;7.210;2022-10-04T15:54:13;100625.00;;;27.60
11424;BMP180;5768;51.476;7.210;2022-10-04T15:59:40;100623.00;;;26.50
11424;BMP180;5768;51.476;7.210;2022-10-04T16:04:56;100631.00;;;25.90
11424;BMP180;5768;51.476;7.210;2022-10-04T16:10:16;100629.00;;;25.30
11424;BMP180;5768;51.476;7.210;2022-10-04T16:15:30;100632.00;;;24.90
11424;BMP180;5768;51.476;7.210;2022-10-04T16:20:58;100633.00;;;24.50
11424;BMP180;5768;51.476;7.210;2022-10-04T16:26:05;100621.00;;;24.30
11424;BMP180;5768;51.476;7.210;2022-10-04T16:31:40;100621.00;;;24.00
11424;BMP180;5768;51.476;7.210;2022-10-04T16:36:50;100622.00;;;23.60
11424;BMP180;5768;51.476;7.210;2022-10-04T16:42:00;100614.00;;;23.30
11424;BMP180;5768;51.476;7.210;2022-10-04T16:47:19;100605.00;;;23.00
11424;BMP180;5768;51.476;7.210;2022-10-04T16:52:41;100593.00;;;22.60
11424;BMP180;5768;51.476;7.210;2022-10-04T16:58:41;100606.00;;;22.30
11424;BMP180;5768;51.476;7.210;2022-10-04T17:03:52;100592.00;;;22.00
11424;BMP180;5768;51.476;7.210;2022-10-04T17:09:18;100603.00;;;21.70
11424;BMP180;5768;51.476;7.210;2022-10-04T17:14:56;100597.00;;;21.40
11424;BMP180;5768;51.476;7.210;2022-10-04T17:20:21;100587.00;;;21.20
11424;BMP180;5768;51.476;7.210;2022-10-04T17:25:38;100593.00;;;20.90
11424;BMP180;5768;51.476;7.210;2022-10-04T17:30:52;100588.00;;;20.70
11424;BMP180;5768;51.476;7.210;2022-10-04T17:36:30;100599.00;;;20.40
11424;BMP180;5768;51.476;7.210;2022-10-04T17:41:55;100609.00;;;20.20
11424;BMP180;5768;51.476;7.210;2022-10-04T17:47:03;100598.00;;;20.00
11424;BMP180;5768;51.476;7.210;2022-10-04T17:52:16;100605.00;;;19.80
11424;BMP180;5768;51.476;7.210;2022-10-04T17:57:58;100590.00;;;19.60
11424;BMP180;5768;51.476;7.210;2022-10-04T18:03:12;100588.00;;;19.50
11424;BMP180;5768;51.476;7.210;2022-10-04T18:08:28;100594.00;;;19.30
11424;BMP180;5768;51.476;7.210;2022-10-04T18:13:44;100596.00;;;19.20
11424;BMP180;5768;51.476;7.210;2022-10-04T18:18:48;100614.00;;;19.10
11424;BMP180;5768;51.476;7.210;2022-10-04T18:23:54;100614.00;;;19.00
11424;BMP180;5768;51.476;7.210;2022-10-04T18:29:00;100622.00;;;18.80
11424;BMP180;5768;51.476;7.210;2022-10-04T18:34:17;100618.00;;;18.70
11424;BMP180;5768;51.476;7.210;2022-10-04T18:39:21;100609.00;;;18.60
11424;BMP180;5768;51.476;7.210;2022-10-04T18:44:28;100608.00;;;18.50
11424;BMP180;5768;51.476;7.210;2022-10-04T18:49:45;100604.00;;;18.40
11424;BMP180;5768;51.476;7.210;2022-10-04T18:55:00;100619.00;;;18.30
11424;BMP180;5768;51.476;7.210;2022-10-04T19:00:12;100626.00;;;18.10
11424;BMP180;5768;51.476;7.210;2022-10-04T19:05:44;100644.00;;;18.10
11424;BMP180;5768;51.476;7.210;2022-10-04T19:11:00;100634.00;;;18.10
11424;BMP180;5768;51.476;7.210;2022-10-04T19:16:29;100625.00;;;18.10
11424;BMP180;5768;51.476;7.210;2022-10-04T19:21:46;100625.00;;;18.10
11424;BMP180;5768;51.476;7.210;2022-10-04T19:26:56;100613.00;;;17.90
11424;BMP180;5768;51.476;7.210;2022-10-04T19:32:06;100607.00;;;17.90
11424;BMP180;5768;51.476;7.210;2022-10-04T19:37:21;100601.00;;;17.80
11424;BMP180;5768;51.476;7.210;2022-10-04T19:42:36;100610.00;;;17.80
11424;BMP180;5768;51.476;7.210;2022-10-04T19:47:49;100616.00;;;17.70
11424;BMP180;5768;51.476;7.210;2022-10-04T19:52:59;100613.00;;;17.50
11424;BMP180;5768;51.476;7.210;2022-10-04T19:58:20;100627.00;;;17.50
11424;BMP180;5768;51.476;7.210;2022-10-04T20:03:26;100638.00;;;17.40
11424;BMP180;5768;51.476;7.210;2022-10-04T20:08:49;100634.00;;;17.30
11424;BMP180;5768;51.476;7.210;2022-10-04T20:19:56;100621.00;;;17.20
11424;BMP180;5768;51.476;7.210;2022-10-04T20:24:58;100617.00;;;17.10
11424;BMP180;5768;51.476;7.210;2022-10-04T20:30:04;100614.00;;;17.00
11424;BMP180;5768;51.476;7.210;2022-10-04T20:36:04;100610.00;;;16.90
11424;BMP180;5768;51.476;7.210;2022-10-04T20:41:45;100619.00;;;16.80
11424;BMP180;5768;51.476;7.210;2022-10-04T20:47:19;100597.00;;;16.70
11424;BMP180;5768;51.476;7.210;2022-10-04T20:52:27;100601.00;;;16.70
11424;BMP180;5768;51.476;7.210;2022-10-04T20:57:30;100586.00;;;16.70
11424;BMP180;5768;51.476;7.210;2022-10-04T21:02:33;100581.00;;;16.70
11424;BMP180;5768;51.476;7.210;2022-10-04T21:07:38;100579.00;;;16.60
11424;BMP180;5768;51.476;7.210;2022-10-04T21:12:40;100580.00;;;16.60
11424;BMP180;5768;51.476;7.210;2022-10-04T21:17:43;100574.00;;;16.50
11424;BMP180;5768;51.476;7.210;2022-10-04T21:22:46;100587.00;;;16.50
11424;BMP180;5768;51.476;7.210;2022-10-04T21:27:48;100592.00;;;16.40
11424;BMP180;5768;51.476;7.210;2022-10-04T21:32:50;100582.00;;;16.40
11424;BMP180;5768;51.476;7.210;2022-10-04T21:37:54;100591.00;;;16.30
11424;BMP180;5768;51.476;7.210;2022-10-04T21:42:58;100594.00;;;16.20
11424;BMP180;5768;51.476;7.210;2022-10-04T21:48:00;100594.00;;;16.20
11424;BMP180;5768;51.476;7.210;2022-10-04T21:53:04;100590.00;;;16.20
11424;BMP180;5768;51.476;7.210;2022-10-04T21:58:06;100583.00;;;16.10
11424;BMP180;5768;51.476;7.210;2022-10-04T22:03:08;100578.00;;;16.00
11424;BMP180;5768;51.476;7.210;2022-10-04T22:08:12;100579.00;;;16.00
11424;BMP180;5768;51.476;7.210;2022-10-04T22:13:14;100606.00;;;15.90
11424;BMP180;5768;51.476;7.210;2022-10-04T22:18:16;100603.00;;;15.90
11424;BMP180;5768;51.476;7.210;2022-10-04T22:23:22;100588.00;;;15.80
11424;BMP180;5768;51.476;7.210;2022-10-04T22:28:28;100580.00;;;15.70
11424;BMP180;5768;51.476;7.210;2022-10-04T22:33:33;100571.00;;;15.70
11424;BMP180;5768;51.476;7.210;2022-10-04T22:38:36;100570.00;;;15.70
11424;BMP180;5768;51.476;7.210;2022-10-04T22:43:38;100572.00;;;15.60
11424;BMP180;5768;51.476;7.210;2022-10-04T22:48:42;100589.00;;;15.60
11424;BMP180;5768;51.476;7.210;2022-10-04T22:53:47;100579.00;;;15.60
11424;BMP180;5768;51.476;7.210;2022-10-04T22:58:49;100576.00;;;15.70
11424;BMP180;5768;51.476;7.210;2022-10-04T23:03:51;100579.00;;;15.70
11424;BMP180;5768;51.476;7.210;2022-10-04T23:08:55;100578.00;;;15.70
11424;BMP180;5768;51.476;7.210;2022-10-04T23:13:59;100560.00;;;15.80
11424;BMP180;5768;51.476;7.210;2022-10-04T23:19:10;100554.00;;;15.80
11424;BMP180;5768;51.476;7.210;2022-10-04T23:24:16;100565.00;;;15.80
11424;BMP180;5768;51.476;7.210;2022-10-04T23:29:23;100554.00;;;15.70
11424;BMP180;5768;51.476;7.210;2022-10-04T23:34:31;100560.00;;;15.70
11424;BMP180;5768;51.476;7.210;2022-10-04T23:39:35;100568.00;;;15.60
11424;BMP180;5768;51.476;7.210;2022-10-04T23:44:37;100549.00;;;15.60
11424;BMP180;5768;51.476;7.210;2022-10-04T23:49:40;100554.00;;;15.60
11424;BMP180;5768;51.476;7.210;2022-10-04T23:54:45;100541.00;;;15.50
11424;BMP180;5768;51.476;7.210;2022-10-04T23:59:48;100534.00;;;15.50
